Acle, United Kingdom
Current Conditions -  °F | °C
As of 6:50 AM on Wednesday 26 Nov 2014 (Local Time) from EGSD Reporting Station
Light Rain Light Rain  
Wind Chill: 43°   Ceiling: Unl
Heat Index: 48°   Visibility: 6mi
Dew Point: 46°   Wind: 13mph
Humidity: 93%   Direction: 100°E
Pressure: 29.94"   Gusts: NA
Location:  52.64°N, 1.55°E
Report Text: EGSD 260650Z 10011KT 9999 -RA SCT015 09/08 Q1014
Loading
Personal Weather Stations






























Interactive Weather Map New forecast layout! Learn more

10-Day Weather Forecast

Advertisements
Track Severe Weather on mobile